Time;durP1;ratioP1;P1;durP2;ratioP2;P2;SDS_P1;SDS_P2;PMS_P1;PMS_P2;Temp;Humidity;BMP_temperature;BMP_pressure;BME280_temperature;BME280_humidity;BME280_pressure;Samples;Min_cycle;Max_cycle;Signal;HPM_P1;HPM_P2
2022/12/20 00:02:04;;;;;;;29.17;15.07;;;;;;;;;;5000684;28;20022;-76
2022/12/20 00:04:30;;;;;;;28.20;14.82;;;;;;;;;;5004376;28;20033;-76
2022/12/20 00:06:55;;;;;;;24.42;13.85;;;;;;;;;;5012516;28;20022;-77
2022/12/20 00:09:21;;;;;;;35.10;14.90;;;;;;;;;;5016620;28;20022;-77
2022/12/20 00:11:47;;;;;;;28.23;15.35;;;;;;;;;;5016266;28;20046;-77
2022/12/20 00:14:13;;;;;;;26.48;15.02;;;;;;;;;;5014045;28;20031;-76
2022/12/20 00:16:39;;;;;;;33.33;15.70;;;;;;;;;;5010838;28;20094;-76
2022/12/20 00:19:06;;;;;;;27.13;13.85;;;;;;;;;;5009933;28;20082;-77
2022/12/20 00:21:33;;;;;;;23.17;13.70;;;;;;;;;;5007149;28;20027;-77
2022/12/20 00:23:59;;;;;;;29.83;14.48;;;;;;;;;;5008284;28;20105;-78
2022/12/20 00:26:26;;;;;;;26.92;13.60;;;;;;;;;;5006206;28;20007;-77
2022/12/20 00:28:53;;;;;;;27.65;14.10;;;;;;;;;;5015946;28;20029;-77
2022/12/20 00:31:20;;;;;;;29.00;13.63;;;;;;;;;;5012127;28;20059;-77
2022/12/20 00:33:47;;;;;;;27.88;14.63;;;;;;;;;;4995861;28;20042;-77
2022/12/20 00:36:13;;;;;;;30.90;13.68;;;;;;;;;;4995636;28;20077;-77
2022/12/20 00:38:39;;;;;;;25.25;13.88;;;;;;;;;;5001102;28;20060;-77
2022/12/20 00:41:06;;;;;;;25.02;13.82;;;;;;;;;;4999505;28;20109;-77
2022/12/20 00:43:33;;;;;;;26.33;13.48;;;;;;;;;;4999150;28;20030;-77
2022/12/20 00:45:59;;;;;;;25.27;13.45;;;;;;;;;;4998248;28;20501;-77
2022/12/20 00:48:25;;;;;;;24.63;13.07;;;;;;;;;;4997776;28;20088;-76
2022/12/20 00:50:51;;;;;;;26.63;13.90;;;;;;;;;;4998278;28;20033;-78
2022/12/20 00:53:17;;;;;;;25.85;13.55;;;;;;;;;;5000969;28;20105;-77
2022/12/20 00:55:44;;;;;;;24.45;13.70;;;;;;;;;;4998998;28;20030;-78
2022/12/20 00:58:10;;;;;;;23.30;13.25;;;;;;;;;;4996495;28;20034;-78
2022/12/20 01:00:36;;;;;;;26.27;13.38;;;;;;;;;;4995873;28;20037;-77
2022/12/20 01:03:02;;;;;;;23.55;13.75;;;;;;;;;;5003453;28;20030;-77
2022/12/20 01:05:28;;;;;;;24.67;14.13;;;;;;;;;;5017072;28;20496;-77
2022/12/20 01:07:54;;;;;;;25.58;13.18;;;;;;;;;;5017056;28;20093;-77
2022/12/20 01:10:20;;;;;;;25.27;12.80;;;;;;;;;;5017284;28;20036;-77
2022/12/20 01:12:46;;;;;;;22.80;12.85;;;;;;;;;;5017748;28;20026;-77
2022/12/20 01:15:12;;;;;;;24.88;12.65;;;;;;;;;;5016902;28;20022;-77
2022/12/20 01:17:38;;;;;;;29.05;13.13;;;;;;;;;;5018644;28;20030;-78
2022/12/20 01:20:04;;;;;;;23.23;12.57;;;;;;;;;;5020494;28;20026;-76
2022/12/20 01:22:30;;;;;;;26.27;13.68;;;;;;;;;;5023086;28;20168;-78
2022/12/20 01:24:56;;;;;;;23.08;13.48;;;;;;;;;;5019721;28;20022;-78
2022/12/20 01:27:22;;;;;;;22.02;12.63;;;;;;;;;;5019425;28;20041;-77
2022/12/20 01:29:48;;;;;;;29.48;12.38;;;;;;;;;;5018173;28;20057;-77
2022/12/20 01:32:14;;;;;;;24.77;12.98;;;;;;;;;;5020055;28;20108;-77
2022/12/20 01:34:40;;;;;;;24.95;14.05;;;;;;;;;;5021223;28;20036;-77
2022/12/20 01:37:06;;;;;;;27.17;12.60;;;;;;;;;;5032124;28;20037;-76
2022/12/20 01:39:32;;;;;;;25.80;13.57;;;;;;;;;;5035852;28;20085;-77
2022/12/20 01:41:58;;;;;;;22.23;12.80;;;;;;;;;;5032568;28;20097;-76
2022/12/20 01:44:24;;;;;;;22.25;12.07;;;;;;;;;;5016752;28;20032;-77
2022/12/20 01:46:50;;;;;;;24.83;13.60;;;;;;;;;;5016728;28;20099;-77
2022/12/20 01:49:19;;;;;;;27.27;13.82;;;;;;;;;;5018084;28;20507;-77
2022/12/20 01:51:47;;;;;;;24.67;12.88;;;;;;;;;;5021779;28;20030;-77
2022/12/20 01:54:15;;;;;;;22.67;12.27;;;;;;;;;;5019644;28;20475;-77
2022/12/20 01:56:44;;;;;;;22.33;12.25;;;;;;;;;;5016650;28;20041;-78
2022/12/20 01:59:11;;;;;;;24.23;12.48;;;;;;;;;;5017786;28;20427;-77
2022/12/20 02:01:37;;;;;;;26.95;12.80;;;;;;;;;;5018238;28;20049;-76
2022/12/20 02:04:03;;;;;;;24.83;12.57;;;;;;;;;;5018221;28;20597;-77
2022/12/20 02:06:29;;;;;;;25.88;12.43;;;;;;;;;;5016356;28;20033;-77
2022/12/20 02:08:58;;;;;;;23.40;11.82;;;;;;;;;;5017127;28;20030;-77
2022/12/20 02:11:42;;;;;;;25.08;11.68;;;;;;;;;;5024146;28;20236;-77
2022/12/20 02:14:27;;;;;;;26.13;11.98;;;;;;;;;;5034048;28;20065;-78
2022/12/20 02:16:58;;;;;;;25.10;11.80;;;;;;;;;;5035056;28;20061;-78
2022/12/20 02:19:41;;;;;;;21.83;11.70;;;;;;;;;;5034652;28;20030;-77
2022/12/20 02:22:25;;;;;;;21.88;11.45;;;;;;;;;;5021906;28;20108;-76
2022/12/20 02:25:09;;;;;;;19.88;11.32;;;;;;;;;;5015121;28;20022;-77
2022/12/20 02:27:58;;;;;;;23.85;12.15;;;;;;;;;;5016001;28;20042;-76
2022/12/20 02:30:26;;;;;;;30.38;13.07;;;;;;;;;;5005311;28;20651;-77
2022/12/20 02:33:09;;;;;;;25.27;12.20;;;;;;;;;;5016454;28;20030;-77
2022/12/20 02:35:37;;;;;;;24.02;11.52;;;;;;;;;;5016093;28;20425;-78
2022/12/20 02:38:04;;;;;;;23.05;12.50;;;;;;;;;;5017477;28;20026;-77
2022/12/20 02:40:39;;;;;;;20.85;12.23;;;;;;;;;;5018035;28;20053;-78
2022/12/20 02:45:14;;;;;;;19.80;11.93;;;;;;;;;;5018184;28;20029;-77
2022/12/20 02:45:53;;;;;;;20.23;11.68;;;;;;;;;;5018819;28;20057;-77
2022/12/20 02:48:19;;;;;;;24.30;11.90;;;;;;;;;;5020585;28;20029;-77
2022/12/20 02:50:48;;;;;;;20.30;11.30;;;;;;;;;;5018304;28;20030;-77
2022/12/20 02:53:15;;;;;;;23.60;11.55;;;;;;;;;;5016563;28;20113;-77
2022/12/20 02:55:45;;;;;;;26.15;10.85;;;;;;;;;;5018361;28;20033;-77
2022/12/20 02:58:16;;;;;;;21.42;11.93;;;;;;;;;;5017159;28;20026;-78
2022/12/20 03:00:44;;;;;;;21.27;10.93;;;;;;;;;;5020583;28;20049;-75
2022/12/20 03:03:22;;;;;;;20.98;10.88;;;;;;;;;;5019590;28;20109;-79
2022/12/20 03:05:49;;;;;;;21.75;11.18;;;;;;;;;;5013346;28;20026;-77
2022/12/20 03:08:16;;;;;;;23.08;10.63;;;;;;;;;;5017377;28;20060;-77
2022/12/20 03:10:42;;;;;;;20.80;11.23;;;;;;;;;;5015957;28;20084;-77
2022/12/20 03:13:27;;;;;;;22.63;11.25;;;;;;;;;;5016892;28;20098;-77
2022/12/20 03:15:53;;;;;;;23.80;11.32;;;;;;;;;;5005330;28;20022;-78
2022/12/20 03:18:19;;;;;;;20.33;10.25;;;;;;;;;;5016367;28;20602;-78
2022/12/20 03:20:45;;;;;;;22.88;11.02;;;;;;;;;;5014858;28;20048;-78
2022/12/20 03:23:11;;;;;;;24.30;10.68;;;;;;;;;;5016179;28;20030;-77
2022/12/20 03:25:37;;;;;;;19.83;11.05;;;;;;;;;;5016033;28;20040;-77
2022/12/20 03:28:03;;;;;;;19.33;10.60;;;;;;;;;;5015325;28;20514;-77
2022/12/20 03:30:29;;;;;;;26.42;11.13;;;;;;;;;;5016888;28;20089;-77
2022/12/20 03:32:55;;;;;;;18.65;10.10;;;;;;;;;;5014811;28;20042;-77
2022/12/20 03:35:21;;;;;;;21.15;10.82;;;;;;;;;;5014966;28;20360;-77
2022/12/20 03:37:47;;;;;;;18.67;10.18;;;;;;;;;;5017742;28;20471;-77
2022/12/20 03:40:14;;;;;;;17.70;9.93;;;;;;;;;;5017078;28;20105;-78
2022/12/20 03:42:40;;;;;;;17.83;10.57;;;;;;;;;;5016088;28;20014;-77
2022/12/20 03:45:06;;;;;;;23.88;11.25;;;;;;;;;;5016794;28;20037;-77
2022/12/20 03:47:32;;;;;;;20.02;10.93;;;;;;;;;;5015294;28;20434;-77
2022/12/20 03:49:58;;;;;;;14.82;9.52;;;;;;;;;;5025355;28;20061;-77
2022/12/20 03:52:24;;;;;;;21.75;9.73;;;;;;;;;;5016578;28;20040;-76
2022/12/20 03:54:50;;;;;;;19.35;10.73;;;;;;;;;;5018695;28;20407;-77
2022/12/20 03:57:16;;;;;;;20.40;10.00;;;;;;;;;;5017963;28;20021;-77
2022/12/20 03:59:42;;;;;;;23.30;10.73;;;;;;;;;;5017919;28;20037;-77
2022/12/20 04:02:08;;;;;;;19.75;9.55;;;;;;;;;;5018285;28;20026;-77
2022/12/20 04:04:34;;;;;;;19.50;10.13;;;;;;;;;;5035386;28;20044;-76
2022/12/20 04:07:00;;;;;;;23.73;10.27;;;;;;;;;;5033195;28;20045;-77
2022/12/20 04:09:26;;;;;;;20.88;10.52;;;;;;;;;;5017957;28;20030;-79
2022/12/20 04:11:52;;;;;;;17.38;9.45;;;;;;;;;;5016564;28;20064;-75
2022/12/20 04:14:18;;;;;;;20.63;10.35;;;;;;;;;;5016575;28;20057;-75
2022/12/20 04:16:45;;;;;;;18.85;9.63;;;;;;;;;;5020225;28;20020;-76
2022/12/20 04:19:11;;;;;;;19.88;9.95;;;;;;;;;;5019944;28;20021;-76
2022/12/20 04:21:37;;;;;;;18.90;9.35;;;;;;;;;;5020128;28;20029;-76
2022/12/20 04:24:03;;;;;;;17.80;9.40;;;;;;;;;;5015914;28;20416;-76
2022/12/20 04:26:30;;;;;;;20.17;8.70;;;;;;;;;;5013628;28;20026;-75
2022/12/20 04:28:57;;;;;;;18.50;9.68;;;;;;;;;;5012885;28;20053;-75
2022/12/20 04:31:23;;;;;;;18.30;10.00;;;;;;;;;;5015719;28;20045;-76
2022/12/20 04:33:49;;;;;;;17.65;9.93;;;;;;;;;;5018380;28;20030;-77
2022/12/20 04:36:15;;;;;;;17.25;9.30;;;;;;;;;;5015801;28;20026;-76
2022/12/20 04:38:41;;;;;;;16.45;9.23;;;;;;;;;;5014825;28;20109;-77
2022/12/20 04:41:07;;;;;;;19.45;9.90;;;;;;;;;;5015450;28;20029;-75
2022/12/20 04:43:33;;;;;;;16.95;10.02;;;;;;;;;;5019372;28;20032;-76
2022/12/20 04:45:59;;;;;;;20.27;9.57;;;;;;;;;;5014936;28;20113;-76
2022/12/20 04:48:26;;;;;;;18.40;9.40;;;;;;;;;;5017502;28;20037;-76
2022/12/20 04:50:53;;;;;;;18.65;9.90;;;;;;;;;;5015903;28;20030;-76
2022/12/20 04:56:04;;;;;;;17.30;9.55;;;;;;;;;;5015085;28;20052;-75
2022/12/20 04:58:30;;;;;;;18.50;9.38;;;;;;;;;;5014260;28;20044;-75
2022/12/20 05:00:56;;;;;;;14.05;8.55;;;;;;;;;;5013308;28;20470;-74
2022/12/20 05:03:24;;;;;;;19.40;9.80;;;;;;;;;;5014065;28;20033;-74
2022/12/20 05:05:50;;;;;;;19.65;9.77;;;;;;;;;;5015704;28;20029;-78
2022/12/20 05:08:17;;;;;;;16.02;9.55;;;;;;;;;;5013492;28;20037;-75
2022/12/20 05:10:43;;;;;;;22.40;11.13;;;;;;;;;;5013438;28;20104;-76
2022/12/20 05:13:08;;;;;;;17.52;9.88;;;;;;;;;;5013419;28;20479;-76
2022/12/20 05:15:35;;;;;;;17.60;9.10;;;;;;;;;;5013463;28;20026;-75
2022/12/20 05:18:01;;;;;;;21.60;10.02;;;;;;;;;;5015734;28;20471;-75
2022/12/20 05:20:27;;;;;;;22.83;10.18;;;;;;;;;;5015868;28;20387;-76
2022/12/20 05:26:40;;;;;;;25.35;11.52;;;;;;;;;;5017483;28;20057;-76
2022/12/20 05:28:35;;;;;;;20.77;10.73;;;;;;;;;;5015124;28;20495;-76
2022/12/20 05:31:02;;;;;;;19.00;10.73;;;;;;;;;;5028564;28;20029;-81
2022/12/20 05:33:28;;;;;;;22.70;10.52;;;;;;;;;;5023463;28;20021;-77
2022/12/20 05:35:54;;;;;;;19.83;10.35;;;;;;;;;;5022144;28;20021;-77
2022/12/20 05:38:21;;;;;;;20.25;10.63;;;;;;;;;;5020996;28;20034;-76
2022/12/20 05:40:47;;;;;;;21.27;11.57;;;;;;;;;;5018923;28;20092;-77
2022/12/20 05:43:14;;;;;;;20.45;10.13;;;;;;;;;;5018617;28;20545;-77
2022/12/20 05:45:40;;;;;;;26.75;11.13;;;;;;;;;;5020242;28;20095;-77
2022/12/20 05:48:06;;;;;;;20.83;11.10;;;;;;;;;;5021048;28;20100;-78
2022/12/20 05:50:32;;;;;;;24.42;11.10;;;;;;;;;;5021095;28;20487;-78
2022/12/20 05:52:58;;;;;;;21.27;10.85;;;;;;;;;;5024032;28;20113;-77
2022/12/20 05:55:24;;;;;;;19.65;10.70;;;;;;;;;;5021699;28;20010;-77
2022/12/20 05:57:49;;;;;;;21.13;10.35;;;;;;;;;;5018269;28;20041;-77
2022/12/20 06:00:16;;;;;;;21.13;9.77;;;;;;;;;;5011249;28;20018;-78
2022/12/20 06:02:42;;;;;;;22.63;10.70;;;;;;;;;;5004994;28;20020;-77
2022/12/20 06:05:08;;;;;;;20.63;9.73;;;;;;;;;;4997271;28;20046;-76
2022/12/20 06:07:34;;;;;;;22.27;10.10;;;;;;;;;;4994826;28;20030;-77
2022/12/20 06:10:00;;;;;;;21.33;10.07;;;;;;;;;;5002613;28;20039;-75
2022/12/20 06:12:26;;;;;;;29.05;12.23;;;;;;;;;;5013704;28;20045;-76
2022/12/20 06:14:52;;;;;;;24.08;9.93;;;;;;;;;;5016556;28;20026;-76
2022/12/20 06:17:21;;;;;;;21.00;10.95;;;;;;;;;;5015761;28;20045;-77
2022/12/20 06:19:47;;;;;;;23.50;11.32;;;;;;;;;;5014679;28;20029;-77
2022/12/20 06:22:13;;;;;;;20.25;10.68;;;;;;;;;;5015388;28;20089;-75
2022/12/20 06:24:39;;;;;;;24.00;10.85;;;;;;;;;;5008638;28;20459;-76
2022/12/20 06:27:08;;;;;;;24.65;11.45;;;;;;;;;;5008507;28;20041;-76
2022/12/20 06:29:36;;;;;;;27.20;11.95;;;;;;;;;;5014292;28;20053;-75
2022/12/20 06:32:16;;;;;;;25.75;11.20;;;;;;;;;;5087261;28;20598;-77
2022/12/20 06:34:42;;;;;;;23.73;11.65;;;;;;;;;;5086952;28;20028;-76
2022/12/20 06:37:09;;;;;;;21.35;11.15;;;;;;;;;;5091737;28;20025;-76
2022/12/20 06:39:35;;;;;;;27.15;14.90;;;;;;;;;;5088780;28;20056;-77
2022/12/20 06:42:00;;;;;;;21.30;11.38;;;;;;;;;;5081708;28;20048;-79
2022/12/20 06:44:26;;;;;;;19.50;11.15;;;;;;;;;;5077503;28;20052;-77
2022/12/20 06:46:52;;;;;;;23.15;11.68;;;;;;;;;;5073551;28;20029;-75
2022/12/20 06:49:18;;;;;;;23.35;11.32;;;;;;;;;;5070272;28;20275;-75
2022/12/20 06:51:44;;;;;;;23.13;10.90;;;;;;;;;;5074680;28;20028;-77
2022/12/20 06:54:10;;;;;;;19.85;10.90;;;;;;;;;;5072719;28;20060;-76
2022/12/20 06:56:36;;;;;;;26.33;11.10;;;;;;;;;;5062148;28;20017;-76
2022/12/20 06:59:02;;;;;;;22.33;11.35;;;;;;;;;;5067372;28;20029;-77
2022/12/20 07:01:28;;;;;;;20.83;10.52;;;;;;;;;;5076470;28;20067;-77
2022/12/20 07:03:54;;;;;;;23.45;11.38;;;;;;;;;;5075940;28;20036;-76
2022/12/20 07:06:20;;;;;;;16.77;10.88;;;;;;;;;;5072567;28;20027;-75
2022/12/20 07:08:46;;;;;;;20.70;11.18;;;;;;;;;;5073119;28;20052;-77
2022/12/20 07:11:12;;;;;;;18.98;10.60;;;;;;;;;;5073082;28;20041;-76
2022/12/20 07:13:38;;;;;;;22.58;10.93;;;;;;;;;;5084732;28;20016;-76
2022/12/20 07:16:04;;;;;;;18.70;10.55;;;;;;;;;;5077016;28;20482;-78
2022/12/20 07:18:31;;;;;;;19.08;10.57;;;;;;;;;;5075162;28;20415;-79
2022/12/20 07:21:04;;;;;;;19.40;10.77;;;;;;;;;;5076039;28;20401;-77
2022/12/20 07:23:30;;;;;;;21.00;11.23;;;;;;;;;;5075720;28;20052;-76
2022/12/20 07:25:57;;;;;;;21.55;10.73;;;;;;;;;;5078744;28;20039;-77
2022/12/20 07:28:23;;;;;;;28.70;13.73;;;;;;;;;;5077629;28;20033;-77
2022/12/20 07:30:49;;;;;;;19.17;11.50;;;;;;;;;;5075144;28;20041;-77
2022/12/20 07:33:15;;;;;;;24.95;11.40;;;;;;;;;;5072121;28;20029;-78
2022/12/20 07:35:42;;;;;;;20.75;10.65;;;;;;;;;;5071814;28;20025;-78
2022/12/20 07:38:08;;;;;;;23.38;10.50;;;;;;;;;;5071518;28;20028;-77
2022/12/20 07:40:34;;;;;;;25.48;11.27;;;;;;;;;;5074603;28;20028;-80
2022/12/20 07:43:00;;;;;;;23.48;10.98;;;;;;;;;;5066657;28;20033;-79
2022/12/20 07:45:26;;;;;;;26.05;11.70;;;;;;;;;;5057846;28;20025;-76
2022/12/20 07:47:52;;;;;;;22.90;11.35;;;;;;;;;;5060978;28;20047;-76
2022/12/20 07:50:18;;;;;;;20.67;11.77;;;;;;;;;;5063943;28;20102;-77
2022/12/20 07:52:45;;;;;;;27.33;12.20;;;;;;;;;;5062100;28;20025;-76
2022/12/20 07:55:12;;;;;;;18.70;11.38;;;;;;;;;;5068138;28;20024;-76
2022/12/20 07:57:42;;;;;;;25.63;12.32;;;;;;;;;;5060568;28;20709;-77
2022/12/20 08:00:08;;;;;;;20.88;10.90;;;;;;;;;;5071885;28;20096;-76
2022/12/20 08:02:43;;;;;;;20.95;12.18;;;;;;;;;;5074320;28;20025;-76
2022/12/20 08:05:10;;;;;;;23.05;12.07;;;;;;;;;;5059082;28;20029;-77
2022/12/20 08:07:37;;;;;;;21.85;11.27;;;;;;;;;;5059719;28;20021;-77
2022/12/20 08:10:04;;;;;;;19.40;11.27;;;;;;;;;;5060962;28;20052;-77
2022/12/20 08:12:30;;;;;;;21.38;11.95;;;;;;;;;;5059096;28;20043;-77
2022/12/20 08:14:57;;;;;;;23.17;12.10;;;;;;;;;;5058978;28;20021;-76
2022/12/20 08:17:23;;;;;;;26.73;11.63;;;;;;;;;;5058519;28;20021;-77
2022/12/20 08:19:52;;;;;;;25.40;11.40;;;;;;;;;;5073059;28;20025;-76
2022/12/20 08:22:18;;;;;;;23.00;11.55;;;;;;;;;;5070856;28;20017;-76
2022/12/20 08:24:45;;;;;;;28.55;11.40;;;;;;;;;;5070294;28;20083;-76
2022/12/20 08:27:10;;;;;;;21.67;11.60;;;;;;;;;;5074948;28;20033;-76
2022/12/20 08:29:36;;;;;;;24.23;12.10;;;;;;;;;;5074911;28;20035;-76
2022/12/20 08:32:02;;;;;;;23.80;12.25;;;;;;;;;;5071200;28;20037;-76
2022/12/20 08:34:29;;;;;;;23.20;10.38;;;;;;;;;;5065936;28;20080;-78
2022/12/20 08:36:55;;;;;;;25.08;12.13;;;;;;;;;;5067116;28;20111;-80
2022/12/20 08:39:21;;;;;;;27.27;12.13;;;;;;;;;;5069730;28;20139;-77
2022/12/20 08:41:47;;;;;;;24.67;11.48;;;;;;;;;;5061550;28;20032;-75
2022/12/20 08:44:13;;;;;;;22.38;11.60;;;;;;;;;;5067805;28;20036;-76
2022/12/20 08:46:39;;;;;;;27.83;12.18;;;;;;;;;;5064141;28;20028;-76
2022/12/20 08:49:05;;;;;;;20.63;11.07;;;;;;;;;;5059308;28;20092;-75
2022/12/20 08:51:31;;;;;;;19.92;10.63;;;;;;;;;;5066532;28;20039;-74
2022/12/20 08:53:57;;;;;;;21.98;10.63;;;;;;;;;;5067693;28;20051;-75
2022/12/20 08:56:23;;;;;;;20.15;10.15;;;;;;;;;;5059660;28;20486;-75
2022/12/20 08:58:49;;;;;;;21.75;10.02;;;;;;;;;;5060616;28;20035;-76
2022/12/20 09:01:17;;;;;;;21.23;10.20;;;;;;;;;;5058068;28;20083;-75
2022/12/20 09:03:44;;;;;;;23.60;10.57;;;;;;;;;;5060771;28;20047;-75
2022/12/20 09:06:12;;;;;;;16.88;10.18;;;;;;;;;;5061529;28;20056;-77
2022/12/20 09:08:38;;;;;;;20.13;10.38;;;;;;;;;;5058930;28;20032;-75
2022/12/20 09:11:10;;;;;;;20.73;10.40;;;;;;;;;;5056600;28;20367;-75
2022/12/20 09:13:36;;;;;;;20.92;10.95;;;;;;;;;;5057905;28;20024;-76
2022/12/20 09:16:03;;;;;;;22.42;10.98;;;;;;;;;;5057697;28;20029;-75
2022/12/20 09:18:29;;;;;;;17.55;10.38;;;;;;;;;;5057940;28;20043;-75
2022/12/20 09:20:55;;;;;;;20.50;10.52;;;;;;;;;;5056750;28;20057;-75
2022/12/20 09:23:21;;;;;;;21.33;10.55;;;;;;;;;;5056457;28;20486;-75
2022/12/20 09:25:47;;;;;;;20.48;10.05;;;;;;;;;;5055595;28;20029;-75
2022/12/20 09:28:13;;;;;;;17.88;9.20;;;;;;;;;;5055986;28;20478;-75
2022/12/20 09:30:39;;;;;;;22.17;10.13;;;;;;;;;;5064449;28;20039;-75
2022/12/20 09:33:05;;;;;;;19.05;10.25;;;;;;;;;;5055978;28;20052;-76
2022/12/20 09:35:32;;;;;;;20.27;9.93;;;;;;;;;;5056160;28;20043;-75
2022/12/20 09:37:58;;;;;;;21.08;9.93;;;;;;;;;;5055701;28;20017;-75
2022/12/20 09:40:26;;;;;;;19.02;10.38;;;;;;;;;;5055492;28;20024;-76
2022/12/20 09:42:52;;;;;;;22.27;11.25;;;;;;;;;;5057111;28;20112;-77
2022/12/20 09:45:26;;;;;;;19.48;10.68;;;;;;;;;;5057174;28;20040;-74
2022/12/20 09:47:52;;;;;;;20.05;9.88;;;;;;;;;;5059128;28;20036;-75
2022/12/20 09:50:19;;;;;;;22.25;10.20;;;;;;;;;;5058670;28;20025;-75
2022/12/20 09:52:51;;;;;;;24.95;11.85;;;;;;;;;;5061420;28;20034;-76
2022/12/20 09:55:31;;;;;;;18.60;10.30;;;;;;;;;;5057565;28;20051;-75
2022/12/20 09:58:09;;;;;;;22.25;10.65;;;;;;;;;;5056899;28;20071;-76
2022/12/20 10:00:40;;;;;;;18.85;10.75;;;;;;;;;;5061294;28;20029;-74
2022/12/20 10:03:06;;;;;;;20.67;10.63;;;;;;;;;;5057775;28;20037;-77
2022/12/20 10:05:41;;;;;;;24.35;11.45;;;;;;;;;;5056222;28;20469;-77
2022/12/20 10:08:20;;;;;;;23.88;11.30;;;;;;;;;;5057065;28;20044;-77
2022/12/20 10:11:04;;;;;;;20.42;12.43;;;;;;;;;;5062492;28;20076;-74
2022/12/20 10:13:33;;;;;;;27.42;12.88;;;;;;;;;;5071868;28;20059;-76
2022/12/20 10:16:18;;;;;;;20.50;11.77;;;;;;;;;;5068789;28;20074;-76
2022/12/20 10:18:52;;;;;;;20.73;11.60;;;;;;;;;;5064330;28;20441;-77
2022/12/20 10:21:24;;;;;;;22.98;12.35;;;;;;;;;;5058176;28;20126;-76
2022/12/20 10:24:14;;;;;;;21.65;11.85;;;;;;;;;;5061005;28;20080;-76
2022/12/20 10:26:40;;;;;;;26.00;12.70;;;;;;;;;;5056716;28;20235;-76
2022/12/20 10:29:06;;;;;;;27.77;14.63;;;;;;;;;;5068362;28;20146;-77
2022/12/20 10:31:34;;;;;;;22.80;11.43;;;;;;;;;;5072985;28;20017;-74
2022/12/20 10:34:00;;;;;;;24.75;11.95;;;;;;;;;;5060654;28;20028;-78
2022/12/20 10:36:34;;;;;;;28.02;12.90;;;;;;;;;;5059552;28;20021;-78
2022/12/20 10:39:02;;;;;;;20.03;11.87;;;;;;;;;;5059104;28;20297;-77
2022/12/20 10:41:29;;;;;;;24.52;12.35;;;;;;;;;;5054680;28;20032;-77
2022/12/20 10:44:25;;;;;;;22.48;11.25;;;;;;;;;;5053990;28;20032;-76
2022/12/20 10:46:52;;;;;;;;;;;;;;;;;;5044263;28;20084;-76
2022/12/20 10:49:32;;;;;;;25.70;13.68;;;;;;;;;;5055935;28;19904;-75
2022/12/20 10:52:00;;;;;;;19.40;10.20;;;;;;;;;;5062510;28;20021;-76
2022/12/20 10:54:34;;;;;;;22.98;9.80;;;;;;;;;;5060499;28;20048;-76
2022/12/20 10:57:01;;;;;;;16.17;9.80;;;;;;;;;;5062177;28;20029;-77
2022/12/20 10:59:33;;;;;;;21.33;9.80;;;;;;;;;;5060995;28;20025;-75
2022/12/20 11:01:59;;;;;;;18.40;9.90;;;;;;;;;;5056633;28;20533;-76
2022/12/20 11:04:29;;;;;;;20.88;8.88;;;;;;;;;;5061678;28;20036;-76
2022/12/20 11:06:56;;;;;;;17.73;9.15;;;;;;;;;;5059799;28;20571;-76
2022/12/20 11:09:24;;;;;;;14.32;8.73;;;;;;;;;;5062400;28;20025;-76
2022/12/20 11:12:05;;;;;;;17.40;8.98;;;;;;;;;;5062205;28;20057;-76
2022/12/20 11:14:32;;;;;;;17.35;8.38;;;;;;;;;;5065889;28;20041;-76
2022/12/20 11:17:00;;;;;;;21.10;8.55;;;;;;;;;;5056449;28;20021;-76
2022/12/20 11:19:47;;;;;;;19.30;7.75;;;;;;;;;;5063071;28;20032;-75
2022/12/20 11:22:34;;;;;;;20.75;8.65;;;;;;;;;;5059694;28;20049;-76
2022/12/20 11:25:00;;;;;;;17.23;8.63;;;;;;;;;;5058079;28;20412;-77
2022/12/20 11:27:33;;;;;;;16.98;7.72;;;;;;;;;;5059476;28;20040;-77
2022/12/20 11:30:02;;;;;;;15.40;7.55;;;;;;;;;;5058776;28;20028;-77
2022/12/20 11:32:31;;;;;;;18.92;8.45;;;;;;;;;;5058786;28;20086;-76
2022/12/20 11:35:07;;;;;;;15.60;7.60;;;;;;;;;;5059688;28;20025;-76
2022/12/20 11:37:36;;;;;;;15.00;7.70;;;;;;;;;;5060373;28;20051;-76
2022/12/20 11:40:11;;;;;;;16.30;7.47;;;;;;;;;;5062545;28;20382;-76
2022/12/20 11:42:43;;;;;;;16.27;7.43;;;;;;;;;;5059967;28;20039;-75
2022/12/20 11:45:09;;;;;;;17.30;8.15;;;;;;;;;;5058433;28;20124;-76
2022/12/20 11:47:45;;;;;;;15.63;7.28;;;;;;;;;;5060883;28;20063;-77
2022/12/20 11:50:18;;;;;;;14.88;7.80;;;;;;;;;;5061733;28;20040;-75
2022/12/20 11:52:44;;;;;;;16.40;7.97;;;;;;;;;;5067196;28;20089;-75
2022/12/20 11:55:13;;;;;;;15.13;7.53;;;;;;;;;;5076803;28;20024;-75
2022/12/20 11:57:58;;;;;;;15.50;7.82;;;;;;;;;;5069392;28;20033;-77
2022/12/20 12:00:25;;;;;;;17.25;7.80;;;;;;;;;;5059224;28;20025;-75
2022/12/20 12:02:57;;;;;;;17.45;8.10;;;;;;;;;;5059415;28;20025;-75
2022/12/20 12:05:29;;;;;;;16.13;8.25;;;;;;;;;;5056826;28;20060;-76
2022/12/20 12:07:59;;;;;;;17.88;7.80;;;;;;;;;;5057381;28;20025;-76
2022/12/20 12:10:34;;;;;;;16.90;7.57;;;;;;;;;;5061193;28;20173;-75
2022/12/20 12:13:04;;;;;;;20.95;8.00;;;;;;;;;;5058764;28;20021;-76
2022/12/20 12:15:34;;;;;;;16.70;7.68;;;;;;;;;;5058051;28;20498;-76
2022/12/20 12:18:03;;;;;;;18.52;7.82;;;;;;;;;;5057517;28;20017;-76
2022/12/20 12:20:32;;;;;;;14.70;7.90;;;;;;;;;;5056627;28;20029;-76
2022/12/20 12:23:04;;;;;;;17.75;8.13;;;;;;;;;;5061254;28;20025;-77
2022/12/20 12:25:31;;;;;;;21.50;9.10;;;;;;;;;;5065174;28;20139;-76
2022/12/20 12:27:57;;;;;;;18.38;8.00;;;;;;;;;;5063501;28;20052;-76
2022/12/20 12:30:23;;;;;;;15.82;8.35;;;;;;;;;;5060869;28;20132;-77
2022/12/20 12:32:49;;;;;;;22.05;7.93;;;;;;;;;;5068279;28;20033;-76
2022/12/20 12:35:21;;;;;;;19.55;8.95;;;;;;;;;;5074645;28;20036;-75
2022/12/20 12:37:48;;;;;;;17.98;8.55;;;;;;;;;;5076645;28;20052;-76
2022/12/20 12:40:39;;;;;;;15.88;8.77;;;;;;;;;;5073889;28;20094;-75
2022/12/20 12:43:25;;;;;;;15.25;8.80;;;;;;;;;;5057962;28;20079;-76
2022/12/20 12:45:56;;;;;;;18.35;8.45;;;;;;;;;;5050142;28;20037;-77
2022/12/20 12:48:25;;;;;;;21.42;8.90;;;;;;;;;;5055193;28;20025;-77
2022/12/20 12:50:53;;;;;;;24.73;10.50;;;;;;;;;;5055685;28;20083;-76
2022/12/20 12:53:19;;;;;;;28.25;14.60;;;;;;;;;;5055632;28;20021;-75
2022/12/20 12:55:46;;;;;;;75.63;35.00;;;;;;;;;;5054660;28;20017;-76
2022/12/20 12:58:32;;;;;;;20.25;9.45;;;;;;;;;;5054678;28;20470;-77
2022/12/20 13:01:11;;;;;;;20.35;9.43;;;;;;;;;;5053957;28;20453;-75
2022/12/20 13:03:53;;;;;;;17.58;9.40;;;;;;;;;;5055087;28;20025;-76
2022/12/20 13:06:25;;;;;;;22.98;11.52;;;;;;;;;;5053405;28;20029;-75
2022/12/20 13:08:57;;;;;;;28.60;13.23;;;;;;;;;;5053996;28;20056;-75
2022/12/20 13:11:29;;;;;;;19.73;9.00;;;;;;;;;;5054997;28;20025;-77
2022/12/20 13:14:14;;;;;;;16.02;9.50;;;;;;;;;;5054438;28;20021;-77
2022/12/20 13:16:40;;;;;;;19.23;9.45;;;;;;;;;;5053534;28;20037;-76
2022/12/20 13:19:17;;;;;;;25.23;10.50;;;;;;;;;;5057901;28;20025;-76
2022/12/20 13:21:45;;;;;;;23.27;11.45;;;;;;;;;;5054286;28;20433;-76
2022/12/20 13:24:32;;;;;;;19.80;9.85;;;;;;;;;;5054397;28;20025;-76
2022/12/20 13:26:59;;;;;;;19.25;9.38;;;;;;;;;;5054404;28;20077;-77
2022/12/20 13:29:26;;;;;;;18.70;9.38;;;;;;;;;;5053149;28;20621;-75
2022/12/20 13:31:52;;;;;;;16.33;9.23;;;;;;;;;;5055084;28;20037;-76
2022/12/20 13:34:44;;;;;;;25.85;10.05;;;;;;;;;;5057090;28;20487;-75
2022/12/20 13:37:25;;;;;;;22.20;9.85;;;;;;;;;;5045990;28;20048;-75
2022/12/20 13:39:50;;;;;;;24.73;9.95;;;;;;;;;;5056667;28;20036;-75
2022/12/20 13:42:22;;;;;;;21.27;10.13;;;;;;;;;;5053987;28;20025;-76
2022/12/20 13:44:49;;;;;;;18.05;9.88;;;;;;;;;;5057939;28;20108;-76
2022/12/20 13:47:18;;;;;;;18.67;9.93;;;;;;;;;;5057037;28;20025;-76
2022/12/20 13:49:44;;;;;;;17.55;9.35;;;;;;;;;;5060053;28;20029;-75
2022/12/20 13:52:10;;;;;;;23.60;11.27;;;;;;;;;;5055848;28;20028;-77
2022/12/20 13:54:44;;;;;;;26.00;12.68;;;;;;;;;;5053207;28;20021;-77
2022/12/20 13:57:15;;;;;;;23.27;9.85;;;;;;;;;;5058486;28;20036;-76
2022/12/20 13:59:44;;;;;;;21.13;9.90;;;;;;;;;;5061096;28;20021;-75
2022/12/20 14:02:16;;;;;;;26.25;11.88;;;;;;;;;;5055586;28;20492;-76
2022/12/20 14:04:43;;;;;;;28.08;13.40;;;;;;;;;;5054386;28;20497;-76
2022/12/20 14:07:14;;;;;;;19.85;11.18;;;;;;;;;;5052515;28;20037;-75
2022/12/20 14:09:44;;;;;;;28.92;10.02;;;;;;;;;;5052578;28;20025;-79
2022/12/20 14:12:14;;;;;;;18.85;10.43;;;;;;;;;;5060027;28;20041;-78
2022/12/20 14:14:44;;;;;;;20.85;10.68;;;;;;;;;;5058203;28;20045;-78
2022/12/20 14:17:17;;;;;;;22.27;9.93;;;;;;;;;;5061440;28;20112;-77
2022/12/20 14:19:43;;;;;;;19.40;10.48;;;;;;;;;;5054773;28;20082;-77
2022/12/20 14:22:11;;;;;;;20.77;11.10;;;;;;;;;;5057766;28;20486;-79
2022/12/20 14:24:39;;;;;;;21.63;11.48;;;;;;;;;;5053304;28;20040;-76
2022/12/20 14:27:04;;;;;;;22.27;10.70;;;;;;;;;;5049935;28;20032;-79
2022/12/20 14:29:31;;;;;;;24.50;11.30;;;;;;;;;;5068487;28;20017;-79
2022/12/20 14:31:57;;;;;;;21.73;11.18;;;;;;;;;;5072323;28;20033;-77
2022/12/20 14:34:27;;;;;;;20.45;11.18;;;;;;;;;;5067016;28;20028;-79
2022/12/20 14:37:13;;;;;;;53.65;29.45;;;;;;;;;;5056113;28;20057;-79